sensor_id;sensor_type;location;lat;lon;timestamp;pressure;altitude;pressure_sealevel;temperature;humidity
35758;BME280;21879;50.110;18.900;2023-03-21T00:07:39;98642.10;;;11.16;68.60
35758;BME280;21879;50.110;18.900;2023-03-21T00:18:05;98638.98;;;11.30;68.36
35758;BME280;21879;50.110;18.900;2023-03-21T00:28:34;98632.55;;;11.41;68.11
35758;BME280;21879;50.110;18.900;2023-03-21T00:39:00;98632.86;;;11.56;67.81
35758;BME280;21879;50.110;18.900;2023-03-21T00:49:27;98637.55;;;11.44;67.35
35758;BME280;21879;50.110;18.900;2023-03-21T00:59:56;98638.75;;;11.06;67.85
35758;BME280;21879;50.110;18.900;2023-03-21T01:10:22;98646.08;;;10.74;68.24
35758;BME280;21879;50.110;18.900;2023-03-21T01:20:49;98648.08;;;10.67;68.78
35758;BME280;21879;50.110;18.900;2023-03-21T01:31:16;98641.42;;;10.55;69.07
35758;BME280;21879;50.110;18.900;2023-03-21T01:41:42;98630.61;;;10.74;69.44
35758;BME280;21879;50.110;18.900;2023-03-21T01:52:11;98615.29;;;10.90;69.14
35758;BME280;21879;50.110;18.900;2023-03-21T02:02:57;98614.11;;;11.01;69.08
35758;BME280;21879;50.110;18.900;2023-03-21T02:13:36;98609.90;;;11.03;68.73
35758;BME280;21879;50.110;18.900;2023-03-21T02:24:38;98601.63;;;10.83;68.67
35758;BME280;21879;50.110;18.900;2023-03-21T02:35:32;98607.58;;;10.80;68.87
35758;BME280;21879;50.110;18.900;2023-03-21T02:46:18;98609.88;;;10.78;68.87
35758;BME280;21879;50.110;18.900;2023-03-21T02:56:50;98609.54;;;10.76;68.81
35758;BME280;21879;50.110;18.900;2023-03-21T03:07:20;98608.67;;;10.62;68.90
35758;BME280;21879;50.110;18.900;2023-03-21T03:17:53;98603.98;;;10.61;69.13
35758;BME280;21879;50.110;18.900;2023-03-21T03:28:28;98606.47;;;10.71;69.04
35758;BME280;21879;50.110;18.900;2023-03-21T03:38:55;98602.61;;;10.75;68.89
35758;BME280;21879;50.110;18.900;2023-03-21T03:49:23;98601.17;;;10.79;68.79
35758;BME280;21879;50.110;18.900;2023-03-21T03:59:50;98598.41;;;10.76;68.66
35758;BME280;21879;50.110;18.900;2023-03-21T04:10:17;98598.52;;;10.51;68.46
35758;BME280;21879;50.110;18.900;2023-03-21T04:20:43;98607.31;;;10.21;68.99
35758;BME280;21879;50.110;18.900;2023-03-21T04:31:10;98603.02;;;10.16;69.08
35758;BME280;21879;50.110;18.900;2023-03-21T04:41:48;98595.89;;;9.97;69.15
35758;BME280;21879;50.110;18.900;2023-03-21T04:52:14;98599.21;;;9.94;69.48
35758;BME280;21879;50.110;18.900;2023-03-21T05:02:39;98599.92;;;10.13;69.59
35758;BME280;21879;50.110;18.900;2023-03-21T05:13:06;98607.02;;;10.37;69.23
35758;BME280;21879;50.110;18.900;2023-03-21T05:23:32;98604.70;;;10.43;68.84
35758;BME280;21879;50.110;18.900;2023-03-21T05:34:02;98598.92;;;10.27;68.39
35758;BME280;21879;50.110;18.900;2023-03-21T05:44:28;98608.86;;;10.04;68.65
35758;BME280;21879;50.110;18.900;2023-03-21T05:54:53;98611.59;;;10.11;69.25
35758;BME280;21879;50.110;18.900;2023-03-21T06:05:19;98614.36;;;10.31;69.23
35758;BME280;21879;50.110;18.900;2023-03-21T06:15:45;98615.55;;;10.52;69.22
35758;BME280;21879;50.110;18.900;2023-03-21T06:26:11;98610.92;;;10.63;68.92
35758;BME280;21879;50.110;18.900;2023-03-21T06:36:37;98621.40;;;10.59;68.88
35758;BME280;21879;50.110;18.900;2023-03-21T06:47:04;98618.36;;;10.30;68.81
35758;BME280;21879;50.110;18.900;2023-03-21T06:57:30;98631.48;;;10.20;69.75
35758;BME280;21879;50.110;18.900;2023-03-21T07:07:56;98639.87;;;10.37;70.00
35758;BME280;21879;50.110;18.900;2023-03-21T07:18:24;98650.11;;;10.55;70.07
35758;BME280;21879;50.110;18.900;2023-03-21T07:28:50;98665.89;;;10.60;69.86
35758;BME280;21879;50.110;18.900;2023-03-21T07:39:16;98668.77;;;10.51;69.53
35758;BME280;21879;50.110;18.900;2023-03-21T07:49:43;98669.42;;;10.35;69.89
35758;BME280;21879;50.110;18.900;2023-03-21T08:00:11;98676.25;;;10.30;70.33
35758;BME280;21879;50.110;18.900;2023-03-21T08:10:46;98675.70;;;10.33;70.58
35758;BME280;21879;50.110;18.900;2023-03-21T08:21:12;98683.07;;;10.45;70.77
35758;BME280;21879;50.110;18.900;2023-03-21T08:31:46;98685.28;;;10.50;70.68
35758;BME280;21879;50.110;18.900;2023-03-21T08:42:11;98689.14;;;10.46;70.68
35758;BME280;21879;50.110;18.900;2023-03-21T08:52:37;98692.22;;;10.51;70.94
35758;BME280;21879;50.110;18.900;2023-03-21T09:03:03;98690.27;;;10.73;71.05
35758;BME280;21879;50.110;18.900;2023-03-21T09:13:29;98697.58;;;10.89;70.86
35758;BME280;21879;50.110;18.900;2023-03-21T09:23:55;98704.52;;;10.90;70.69
35758;BME280;21879;50.110;18.900;2023-03-21T09:34:23;98711.52;;;10.86;70.28
35758;BME280;21879;50.110;18.900;2023-03-21T09:44:56;98718.30;;;10.87;70.41
35758;BME280;21879;50.110;18.900;2023-03-21T09:55:28;98721.92;;;10.89;70.15
35758;BME280;21879;50.110;18.900;2023-03-21T10:05:56;98723.86;;;10.87;69.79
35758;BME280;21879;50.110;18.900;2023-03-21T10:16:27;98716.90;;;10.88;69.75
35758;BME280;21879;50.110;18.900;2023-03-21T10:26:54;98717.85;;;10.97;69.80
35758;BME280;21879;50.110;18.900;2023-03-21T10:37:21;98713.89;;;11.09;70.03
35758;BME280;21879;50.110;18.900;2023-03-21T10:47:49;98715.84;;;11.21;69.68
35758;BME280;21879;50.110;18.900;2023-03-21T10:58:18;98712.66;;;11.24;69.66
35758;BME280;21879;50.110;18.900;2023-03-21T11:08:53;98711.24;;;11.12;69.39
35758;BME280;21879;50.110;18.900;2023-03-21T11:19:25;98716.73;;;11.04;69.40
35758;BME280;21879;50.110;18.900;2023-03-21T11:29:53;98709.92;;;11.20;69.58
35758;BME280;21879;50.110;18.900;2023-03-21T11:40:23;98703.64;;;11.36;69.52
35758;BME280;21879;50.110;18.900;2023-03-21T11:50:51;98695.20;;;11.43;68.89
35758;BME280;21879;50.110;18.900;2023-03-21T12:01:26;98689.19;;;11.50;68.55
35758;BME280;21879;50.110;18.900;2023-03-21T12:12:04;98688.55;;;11.45;68.31
35758;BME280;21879;50.110;18.900;2023-03-21T12:22:35;98685.71;;;11.49;68.01
35758;BME280;21879;50.110;18.900;2023-03-21T12:33:17;98678.71;;;11.39;66.76
35758;BME280;21879;50.110;18.900;2023-03-21T12:43:48;98670.67;;;11.28;66.18
35758;BME280;21879;50.110;18.900;2023-03-21T12:54:24;98666.74;;;11.22;65.92
35758;BME280;21879;50.110;18.900;2023-03-21T13:04:57;98658.02;;;11.23;66.27
35758;BME280;21879;50.110;18.900;2023-03-21T13:15:46;98653.00;;;11.22;66.22
35758;BME280;21879;50.110;18.900;2023-03-21T13:26:16;98642.94;;;11.32;66.17
35758;BME280;21879;50.110;18.900;2023-03-21T13:36:44;98642.11;;;11.29;65.93
35758;BME280;21879;50.110;18.900;2023-03-21T13:47:39;98635.69;;;11.28;66.14
35758;BME280;21879;50.110;18.900;2023-03-21T13:58:22;98631.23;;;11.36;66.03
35758;BME280;21879;50.110;18.900;2023-03-21T14:08:49;98623.00;;;11.39;66.05
35758;BME280;21879;50.110;18.900;2023-03-21T14:19:15;98619.35;;;11.39;65.91
35758;BME280;21879;50.110;18.900;2023-03-21T14:29:41;98617.63;;;11.50;66.32
35758;BME280;21879;50.110;18.900;2023-03-21T14:40:19;98611.13;;;11.54;66.03
35758;BME280;21879;50.110;18.900;2023-03-21T14:50:47;98611.01;;;11.38;65.88
35758;BME280;21879;50.110;18.900;2023-03-21T15:01:20;98610.33;;;11.37;65.84
35758;BME280;21879;50.110;18.900;2023-03-21T15:11:52;98604.20;;;11.39;65.67
35758;BME280;21879;50.110;18.900;2023-03-21T15:22:25;98601.75;;;11.40;65.72
35758;BME280;21879;50.110;18.900;2023-03-21T15:32:54;98590.80;;;11.51;65.63
35758;BME280;21879;50.110;18.900;2023-03-21T15:43:20;98583.36;;;11.59;65.60
35758;BME280;21879;50.110;18.900;2023-03-21T15:53:45;98582.33;;;11.69;65.40
35758;BME280;21879;50.110;18.900;2023-03-21T16:04:12;98577.14;;;11.55;65.09
35758;BME280;21879;50.110;18.900;2023-03-21T16:14:39;98577.19;;;11.29;65.50
35758;BME280;21879;50.110;18.900;2023-03-21T16:25:07;98582.09;;;11.15;66.08
35758;BME280;21879;50.110;18.900;2023-03-21T16:35:34;98585.00;;;11.06;66.69
35758;BME280;21879;50.110;18.900;2023-03-21T16:46:00;98590.72;;;10.94;66.73
35758;BME280;21879;50.110;18.900;2023-03-21T16:56:28;98597.05;;;10.88;67.20
35758;BME280;21879;50.110;18.900;2023-03-21T17:06:55;98600.91;;;10.72;67.33
35758;BME280;21879;50.110;18.900;2023-03-21T17:17:21;98603.37;;;10.53;67.69
35758;BME280;21879;50.110;18.900;2023-03-21T17:27:47;98597.33;;;10.48;67.99
35758;BME280;21879;50.110;18.900;2023-03-21T17:38:15;98613.48;;;10.66;68.33
35758;BME280;21879;50.110;18.900;2023-03-21T17:48:43;98628.77;;;10.96;68.32
35758;BME280;21879;50.110;18.900;2023-03-21T17:59:12;98625.88;;;11.20;67.83
35758;BME280;21879;50.110;18.900;2023-03-21T18:09:38;98622.09;;;11.17;67.60
35758;BME280;21879;50.110;18.900;2023-03-21T18:20:06;98620.37;;;11.28;67.39
35758;BME280;21879;50.110;18.900;2023-03-21T18:30:33;98624.45;;;11.35;67.10
35758;BME280;21879;50.110;18.900;2023-03-21T18:41:19;98620.84;;;11.32;66.74
35758;BME280;21879;50.110;18.900;2023-03-21T18:51:46;98627.73;;;11.36;66.74
35758;BME280;21879;50.110;18.900;2023-03-21T19:02:14;98629.72;;;11.32;66.55
35758;BME280;21879;50.110;18.900;2023-03-21T19:12:40;98635.64;;;11.18;66.50
35758;BME280;21879;50.110;18.900;2023-03-21T19:23:05;98640.67;;;11.06;66.78
35758;BME280;21879;50.110;18.900;2023-03-21T19:33:34;98643.10;;;11.06;66.85
35758;BME280;21879;50.110;18.900;2023-03-21T19:44:00;98638.42;;;10.90;66.99
35758;BME280;21879;50.110;18.900;2023-03-21T19:54:26;98637.54;;;10.92;67.18
35758;BME280;21879;50.110;18.900;2023-03-21T20:04:54;98642.40;;;10.93;67.19
35758;BME280;21879;50.110;18.900;2023-03-21T20:15:19;98640.95;;;10.82;67.18
35758;BME280;21879;50.110;18.900;2023-03-21T20:25:51;98638.80;;;10.73;67.08
35758;BME280;21879;50.110;18.900;2023-03-21T20:36:17;98638.07;;;10.60;67.08
35758;BME280;21879;50.110;18.900;2023-03-21T20:47:02;98632.54;;;10.57;67.25
35758;BME280;21879;50.110;18.900;2023-03-21T20:57:29;98629.82;;;10.51;67.23
35758;BME280;21879;50.110;18.900;2023-03-21T21:07:57;98627.44;;;10.61;67.30
35758;BME280;21879;50.110;18.900;2023-03-21T21:18:23;98628.36;;;10.57;66.82
35758;BME280;21879;50.110;18.900;2023-03-21T21:28:49;98618.10;;;10.41;66.82
35758;BME280;21879;50.110;18.900;2023-03-21T21:39:16;98621.17;;;10.46;66.93
35758;BME280;21879;50.110;18.900;2023-03-21T21:49:42;98619.33;;;10.40;66.81
35758;BME280;21879;50.110;18.900;2023-03-21T22:00:10;98617.77;;;10.38;66.90
35758;BME280;21879;50.110;18.900;2023-03-21T22:10:35;98616.11;;;10.29;66.64
35758;BME280;21879;50.110;18.900;2023-03-21T22:21:02;98613.55;;;10.24;66.63
35758;BME280;21879;50.110;18.900;2023-03-21T22:31:28;98618.08;;;10.23;66.36
35758;BME280;21879;50.110;18.900;2023-03-21T22:41:55;98612.33;;;10.04;66.18
35758;BME280;21879;50.110;18.900;2023-03-21T22:52:24;98585.15;;;9.94;66.36
35758;BME280;21879;50.110;18.900;2023-03-21T23:02:49;98581.27;;;10.00;66.45
35758;BME280;21879;50.110;18.900;2023-03-21T23:13:15;98578.17;;;9.98;66.23
35758;BME280;21879;50.110;18.900;2023-03-21T23:23:42;98581.89;;;9.89;66.16
35758;BME280;21879;50.110;18.900;2023-03-21T23:34:13;98569.72;;;9.93;66.21
35758;BME280;21879;50.110;18.900;2023-03-21T23:44:39;98574.13;;;9.85;65.97
35758;BME280;21879;50.110;18.900;2023-03-21T23:55:06;98572.40;;;9.61;65.74
